Time;durP1;ratioP1;P1;durP2;ratioP2;P2;SDS_P1;SDS_P2;PMS_P1;PMS_P2;Temp;Humidity;BMP_temperature;BMP_pressure;BME280_temperature;BME280_humidity;BME280_pressure;Samples;Min_cycle;Max_cycle;Signal;HPM_P1;HPM_P2
2022/05/27 00:03:20;;;;;;;0.10;0.10;;;;;;;-145.06;100.00;63404.56;10365395;28;20396;-62
2022/05/27 00:08:22;;;;;;;0.10;0.10;;;;;;;-145.06;100.00;63404.56;10368148;28;20463;-63
2022/05/27 00:13:23;;;;;;;0.10;0.10;;;;;;;-145.06;100.00;63404.56;10351552;28;20038;-62
2022/05/27 00:18:23;;;;;;;0.10;0.10;;;;;;;-145.06;100.00;63404.56;10367283;28;20032;-63
2022/05/27 00:23:24;;;;;;;0.10;0.10;;;;;;;-145.06;100.00;63404.56;10368108;28;20041;-63
2022/05/27 00:28:25;;;;;;;0.10;0.10;;;;;;;-145.06;100.00;63404.56;10369185;28;20048;-62
2022/05/27 00:33:25;;;;;;;0.10;0.10;;;;;;;-145.06;100.00;63404.56;10372651;28;20129;-62
2022/05/27 00:38:26;;;;;;;0.10;0.10;;;;;;;-145.06;100.00;63404.56;10359391;28;20096;-60
2022/05/27 00:43:26;;;;;;;0.10;0.10;;;;;;;-145.06;100.00;63404.56;10367827;28;20121;-62
2022/05/27 00:48:27;;;;;;;0.10;0.10;;;;;;;-145.06;100.00;63404.56;10367327;28;20030;-61
2022/05/27 00:53:34;;;;;;;0.10;0.10;;;;;;;-145.06;100.00;63404.56;10367439;28;20473;-63
2022/05/27 00:58:47;;;;;;;0.10;0.10;;;;;;;-145.06;100.00;63404.56;10367964;28;20057;-64
2022/05/27 01:03:48;;;;;;;0.10;0.10;;;;;;;-145.06;100.00;63404.56;10365292;28;20137;-61
2022/05/27 01:08:49;;;;;;;0.10;0.10;;;;;;;-145.06;100.00;63404.56;10379917;28;20431;-63
2022/05/27 01:14:08;;;;;;;0.10;0.10;;;;;;;-145.06;100.00;63404.56;10369356;28;20236;-63
2022/05/27 01:25:04;;;;;;;0.00;0.00;;;;;;;-145.06;100.00;63404.56;10366964;28;20034;-62
2022/05/27 01:30:23;;;;;;;0.10;0.10;;;;;;;-145.06;100.00;63404.56;10369937;28;20038;-60
2022/05/27 01:35:39;;;;;;;0.10;0.10;;;;;;;-145.06;100.00;63404.56;10365342;28;20384;-61
2022/05/27 01:40:52;;;;;;;0.10;0.10;;;;;;;-145.06;100.00;63404.56;10369842;28;20037;-62
2022/05/27 01:46:15;;;;;;;0.10;0.10;;;;;;;-145.06;100.00;63404.56;10373108;28;20495;-62
2022/05/27 01:51:26;;;;;;;0.00;0.00;;;;;;;-145.06;100.00;63404.56;10373399;28;20048;-63
2022/05/27 01:56:32;;;;;;;0.10;0.10;;;;;;;-145.06;100.00;63404.56;10372913;28;20046;-63
2022/05/27 02:01:37;;;;;;;0.10;0.10;;;;;;;-145.06;100.00;63404.56;10374016;28;20042;-63
2022/05/27 02:06:43;;;;;;;0.10;0.10;;;;;;;-145.06;100.00;63404.56;10372360;28;20099;-63
2022/05/27 02:11:48;;;;;;;0.10;0.10;;;;;;;-145.06;100.00;63404.56;10372513;28;20084;-63
2022/05/27 02:16:54;;;;;;;0.10;0.10;;;;;;;-145.06;100.00;63404.56;10334139;28;20033;-63
2022/05/27 02:22:03;;;;;;;0.10;0.10;;;;;;;-145.06;100.00;63404.56;10333064;28;20034;-61
2022/05/27 02:27:08;;;;;;;0.10;0.10;;;;;;;-145.06;100.00;63404.56;10331403;28;20042;-63
2022/05/27 02:32:16;;;;;;;0.10;0.10;;;;;;;-145.06;100.00;63404.56;10330011;28;20497;-63
2022/05/27 02:37:21;;;;;;;0.00;0.00;;;;;;;-145.06;100.00;63404.56;10330904;28;20038;-63
2022/05/27 02:43:06;;;;;;;0.10;0.10;;;;;;;-145.06;100.00;63404.56;10351906;28;20511;-61
2022/05/27 02:48:37;;;;;;;0.10;0.10;;;;;;;-145.06;100.00;63404.56;10245497;29;20126;-60
2022/05/27 02:54:01;;;;;;;0.10;0.10;;;;;;;-145.06;100.00;63404.56;10321644;28;20396;-63
2022/05/27 02:59:03;;;;;;;0.10;0.10;;;;;;;-145.06;100.00;63404.56;10331064;28;20034;-63
2022/05/27 03:04:06;;;;;;;0.10;0.10;;;;;;;-145.06;100.00;63404.56;10329623;28;20038;-63
2022/05/27 03:09:14;;;;;;;0.10;0.10;;;;;;;-145.06;100.00;63404.56;10330419;28;20026;-63
2022/05/27 03:14:28;;;;;;;0.10;0.10;;;;;;;-145.06;100.00;63404.56;10344925;28;20030;-63
2022/05/27 03:19:37;;;;;;;0.00;0.00;;;;;;;-145.06;100.00;63404.56;10329789;28;20563;-63
2022/05/27 03:25:10;;;;;;;0.00;0.00;;;;;;;-145.06;100.00;63404.56;10329081;28;20524;-62
2022/05/27 03:30:18;;;;;;;0.10;0.10;;;;;;;-145.06;100.00;63404.56;10311796;28;20429;-61
2022/05/27 03:35:27;;;;;;;0.00;0.00;;;;;;;-145.06;100.00;63404.56;10346683;28;20189;-61
2022/05/27 03:41:00;;;;;;;0.10;0.10;;;;;;;-145.06;100.00;63404.56;10378229;28;20836;-63
2022/05/27 03:46:02;;;;;;;0.00;0.00;;;;;;;-145.06;100.00;63404.56;10397755;28;20037;-62
2022/05/27 03:51:19;;;;;;;0.10;0.10;;;;;;;-145.06;100.00;63404.56;10408735;28;20037;-62
2022/05/27 03:56:19;;;;;;;0.03;0.03;;;;;;;-145.06;100.00;63404.56;10409111;28;20091;-63
2022/05/27 04:01:25;;;;;;;0.10;0.10;;;;;;;-145.06;100.00;63404.56;10409793;28;20037;-63
2022/05/27 04:06:27;;;;;;;0.10;0.10;;;;;;;-145.06;100.00;63404.56;10409488;28;20029;-63
2022/05/27 04:11:28;;;;;;;0.10;0.10;;;;;;;-145.06;100.00;63404.56;10408982;28;20029;-63
2022/05/27 04:16:28;;;;;;;0.10;0.10;;;;;;;-145.06;100.00;63404.56;10409342;28;20112;-63
2022/05/27 04:21:29;;;;;;;0.10;0.10;;;;;;;-145.06;100.00;63404.56;10409334;28;20183;-63
2022/05/27 04:26:30;;;;;;;0.00;0.00;;;;;;;-145.06;100.00;63404.56;10408644;28;20119;-62
2022/05/27 04:31:30;;;;;;;0.10;0.10;;;;;;;-145.06;100.00;63404.56;10410243;28;20049;-63
2022/05/27 04:36:31;;;;;;;0.10;0.10;;;;;;;-145.06;100.00;63404.56;10408166;28;20041;-62
2022/05/27 04:41:31;;;;;;;0.10;0.10;;;;;;;-145.06;100.00;63404.56;10397688;28;20397;-64
2022/05/27 04:46:31;;;;;;;0.00;0.00;;;;;;;-145.06;100.00;63404.56;10367297;28;20125;-63
2022/05/27 04:51:32;;;;;;;0.10;0.10;;;;;;;-145.06;100.00;63404.56;10368347;28;20397;-64
2022/05/27 04:56:33;;;;;;;0.10;0.10;;;;;;;-145.06;100.00;63404.56;10366866;28;20484;-64
2022/05/27 05:01:33;;;;;;;0.00;0.00;;;;;;;-145.06;100.00;63404.56;10368418;28;20105;-64
2022/05/27 05:06:34;;;;;;;0.00;0.00;;;;;;;-145.06;100.00;63404.56;10372155;28;20044;-64
2022/05/27 05:11:34;;;;;;;0.00;0.00;;;;;;;-145.06;100.00;63404.56;10393124;28;20022;-64
2022/05/27 05:16:34;;;;;;;0.00;0.00;;;;;;;-145.06;100.00;63404.56;10379007;28;20447;-64
2022/05/27 05:21:36;;;;;;;0.00;0.00;;;;;;;-145.06;100.00;63404.56;10374825;28;20493;-64
2022/05/27 05:26:37;;;;;;;0.00;0.00;;;;;;;-145.06;100.00;63404.56;10373793;28;20559;-64
2022/05/27 05:31:37;;;;;;;0.00;0.00;;;;;;;-145.06;100.00;63404.56;10374307;28;20253;-64
2022/05/27 05:36:38;;;;;;;0.10;0.10;;;;;;;-145.06;100.00;63404.56;10416383;23;20076;-63
2022/05/27 05:41:41;;;;;;;0.00;0.00;;;;;;;-145.06;100.00;63404.56;10403609;28;20555;-62
2022/05/27 05:46:42;;;;;;;0.10;0.10;;;;;;;-145.06;100.00;63404.56;10414399;28;20087;-62
2022/05/27 05:51:42;;;;;;;0.10;0.10;;;;;;;-145.06;100.00;63404.56;10415353;28;20124;-64
2022/05/27 05:56:43;;;;;;;0.10;0.10;;;;;;;-145.06;100.00;63404.56;10412672;28;20159;-62
2022/05/27 06:01:44;;;;;;;0.10;0.10;;;;;;;-145.06;100.00;63404.56;10413077;28;20032;-64
2022/05/27 06:06:44;;;;;;;0.00;0.00;;;;;;;-145.06;100.00;63404.56;10393382;28;20060;-62
2022/05/27 06:11:44;;;;;;;0.10;0.10;;;;;;;-145.06;100.00;63404.56;10384471;28;20028;-62
2022/05/27 06:16:45;;;;;;;0.10;0.10;;;;;;;-145.06;100.00;63404.56;10411591;28;20061;-62
2022/05/27 06:21:46;;;;;;;0.00;0.00;;;;;;;-145.06;100.00;63404.56;10412200;28;20029;-62
2022/05/27 06:26:46;;;;;;;0.10;0.10;;;;;;;-145.06;100.00;63404.56;10411121;28;20033;-62
2022/05/27 06:37:12;;;;;;;0.10;0.10;;;;;;;-145.06;100.00;63404.56;10369711;28;20112;-62
2022/05/27 06:42:14;;;;;;;0.10;0.10;;;;;;;-145.06;100.00;63404.56;10351458;28;20025;-63
2022/05/27 06:47:15;;;;;;;0.00;0.00;;;;;;;-145.06;100.00;63404.56;10350903;28;20037;-62
2022/05/27 06:52:15;;;;;;;0.00;0.00;;;;;;;-145.06;100.00;63404.56;10369983;28;20040;-62
2022/05/27 06:57:16;;;;;;;0.10;0.10;;;;;;;-145.06;100.00;63404.56;10354335;28;20287;-63
2022/05/27 07:02:16;;;;;;;0.10;0.10;;;;;;;-145.06;100.00;63404.56;10326552;28;20149;-63
2022/05/27 07:07:17;;;;;;;0.10;0.10;;;;;;;-145.06;100.00;63404.56;10326642;28;20036;-63
2022/05/27 07:12:17;;;;;;;0.10;0.10;;;;;;;-145.06;100.00;63404.56;10347781;28;20030;-62
2022/05/27 07:17:18;;;;;;;0.10;0.10;;;;;;;-145.06;100.00;63404.56;10369560;28;20038;-61
2022/05/27 07:22:18;;;;;;;0.00;0.00;;;;;;;-145.06;100.00;63404.56;10370358;28;20038;-62
2022/05/27 07:27:18;;;;;;;0.00;0.00;;;;;;;-145.06;100.00;63404.56;10368785;28;20070;-61
2022/05/27 07:32:20;;;;;;;0.00;0.00;;;;;;;-145.06;100.00;63404.56;10370082;28;20054;-63
2022/05/27 07:37:20;;;;;;;0.10;0.10;;;;;;;-145.06;100.00;63404.56;10403148;28;20045;-63
2022/05/27 07:42:21;;;;;;;0.10;0.10;;;;;;;-145.06;100.00;63404.56;10392378;28;20068;-63
2022/05/27 07:47:21;;;;;;;0.00;0.00;;;;;;;-145.06;100.00;63404.56;10409679;28;20116;-63
2022/05/27 07:52:22;;;;;;;0.00;0.00;;;;;;;-145.06;100.00;63404.56;10409861;28;20025;-63
2022/05/27 07:57:25;;;;;;;0.00;0.00;;;;;;;-145.06;100.00;63404.56;10407652;28;20492;-63
2022/05/27 08:02:26;;;;;;;0.10;0.10;;;;;;;-145.06;100.00;63404.56;10406300;28;20037;-63
2022/05/27 08:07:27;;;;;;;0.00;0.00;;;;;;;-145.06;100.00;63404.56;10409019;28;20047;-63
2022/05/27 08:12:27;;;;;;;0.00;0.00;;;;;;;-145.06;100.00;63404.56;10409578;28;20026;-63
2022/05/27 08:17:27;;;;;;;0.10;0.10;;;;;;;-145.06;100.00;63404.56;10391018;28;20052;-63
2022/05/27 08:22:28;;;;;;;0.00;0.00;;;;;;;-145.06;100.00;63404.56;10409027;28;20040;-61
2022/05/27 08:27:31;;;;;;;0.00;0.00;;;;;;;-145.06;100.00;63404.56;10408400;28;20747;-62
2022/05/27 08:32:32;;;;;;;0.00;0.00;;;;;;;-145.06;100.00;63404.56;10392527;28;20112;-65
2022/05/27 08:43:36;;;;;;;0.10;0.10;;;;;;;-145.06;100.00;63404.56;10415503;28;20408;-62
2022/05/27 08:48:38;;;;;;;;;;;;;;;-145.06;100.00;63404.56;10416641;28;20029;-63
2022/05/27 08:53:47;;;;;;;0.00;0.00;;;;;;;-145.06;100.00;63404.56;10415971;28;20427;-63
2022/05/27 09:04:17;;;;;;;0.00;0.00;;;;;;;-145.06;100.00;63404.56;10397901;28;20041;-62
2022/05/27 09:09:22;;;;;;;0.00;0.00;;;;;;;-145.06;100.00;63404.56;10376704;28;20026;-62
2022/05/27 09:14:26;;;;;;;0.10;0.10;;;;;;;-145.06;100.00;63404.56;10373390;28;20125;-61
2022/05/27 09:19:42;;;;;;;0.10;0.10;;;;;;;-145.06;100.00;63404.56;10384735;28;20033;-63
2022/05/27 09:25:23;;;;;;;0.00;0.00;;;;;;;-145.06;100.00;63404.56;10414470;28;20048;-62
2022/05/27 09:30:23;;;;;;;0.00;0.00;;;;;;;-145.06;100.00;63404.56;10411623;28;20041;-62
2022/05/27 09:35:34;;;;;;;0.03;0.03;;;;;;;-145.06;100.00;63404.56;10395886;28;20037;-62
2022/05/27 09:40:46;;;;;;;0.00;0.00;;;;;;;-145.06;100.00;63404.56;10413012;28;20041;-60
2022/05/27 09:45:56;;;;;;;0.00;0.00;;;;;;;-145.06;100.00;63404.56;10412394;28;20112;-61
2022/05/27 09:51:01;;;;;;;0.10;0.10;;;;;;;-145.06;100.00;63404.56;10413381;28;20033;-64
2022/05/27 09:56:12;;;;;;;0.00;0.00;;;;;;;-145.06;100.00;63404.56;10412128;28;20041;-63
2022/05/27 10:01:22;;;;;;;0.10;0.10;;;;;;;-145.06;100.00;63404.56;10406287;28;20128;-63
2022/05/27 10:06:27;;;;;;;0.08;0.08;;;;;;;-145.06;100.00;63404.56;10397259;28;20651;-64
2022/05/27 10:11:33;;;;;;;0.08;0.08;;;;;;;-145.06;100.00;63404.56;10402171;28;20022;-63
2022/05/27 10:16:34;;;;;;;0.10;0.10;;;;;;;-145.06;100.00;63404.56;10392828;28;20033;-62
2022/05/27 10:21:58;;;;;;;0.10;0.10;;;;;;;-145.06;100.00;63404.56;10411802;28;20048;-63
2022/05/27 10:27:08;;;;;;;0.10;0.10;;;;;;;-145.06;100.00;63404.56;10390180;28;20037;-63
2022/05/27 10:32:08;;;;;;;0.10;0.10;;;;;;;-145.06;100.00;63404.56;10385786;28;20049;-62
2022/05/27 10:37:28;;;;;;;0.10;0.10;;;;;;;-145.06;100.00;63404.56;10371027;28;20061;-62
2022/05/27 10:43:01;;;;;;;0.00;0.00;;;;;;;-145.06;100.00;63404.56;10409357;28;20039;-62
2022/05/27 10:48:43;;;;;;;0.10;0.10;;;;;;;-145.06;100.00;63404.56;10392101;28;20033;-63
2022/05/27 10:53:58;;;;;;;0.10;0.10;;;;;;;-145.06;100.00;63404.56;10339835;28;20057;-62
2022/05/27 11:05:11;;;;;;;0.05;0.05;;;;;;;-145.06;100.00;63404.56;10369224;28;20038;-63
2022/05/27 11:10:21;;;;;;;0.10;0.10;;;;;;;-145.06;100.00;63404.56;10370860;28;20064;-63
2022/05/27 11:16:08;;;;;;;0.10;0.10;;;;;;;-145.06;100.00;63404.56;10369969;28;20473;-62
2022/05/27 11:22:05;;;;;;;0.10;0.10;;;;;;;-145.06;100.00;63404.56;10370081;28;20058;-62
2022/05/27 11:27:11;;;;;;;0.10;0.10;;;;;;;-145.06;100.00;63404.56;10284407;28;20049;-62
2022/05/27 11:32:24;;;;;;;0.10;0.10;;;;;;;-145.06;100.00;63404.56;10357666;28;20442;-62
2022/05/27 11:37:54;;;;;;;0.20;0.20;;;;;;;-145.06;100.00;63404.56;10426010;23;20171;-64
2022/05/27 11:43:43;;;;;;;0.10;0.10;;;;;;;-145.06;100.00;63404.56;10410618;28;20542;-64
2022/05/27 11:49:17;;;;;;;0.10;0.10;;;;;;;-145.06;100.00;63404.56;10410213;28;20029;-64
2022/05/27 11:54:45;;;;;;;0.10;0.10;;;;;;;-145.06;100.00;63404.56;10409713;28;20045;-64
2022/05/27 12:00:03;;;;;;;0.10;0.10;;;;;;;-145.06;100.00;63404.56;10408110;28;20037;-64
2022/05/27 12:05:16;;;;;;;0.10;0.10;;;;;;;-145.06;100.00;63404.56;10392574;28;20238;-64
2022/05/27 12:10:25;;;;;;;0.05;0.05;;;;;;;-145.06;100.00;63404.56;10409911;28;20441;-64
2022/05/27 12:15:43;;;;;;;0.10;0.10;;;;;;;-145.06;100.00;63404.56;10408465;28;20493;-64
2022/05/27 12:20:51;;;;;;;0.03;0.03;;;;;;;-145.06;100.00;63404.56;10409328;28;20534;-64
2022/05/27 12:26:14;;;;;;;0.10;0.10;;;;;;;-145.06;100.00;63404.56;10386091;28;20551;-64
2022/05/27 12:31:17;;;;;;;;;;;;;;;-145.06;100.00;63404.56;10404739;28;20088;-64
2022/05/27 12:36:33;;;;;;;0.10;0.10;;;;;;;-145.06;100.00;63404.56;10408008;28;19992;-64
2022/05/27 12:41:43;;;;;;;0.10;0.10;;;;;;;-145.06;100.00;63404.56;10409616;28;20404;-63
2022/05/27 12:46:45;;;;;;;0.10;0.10;;;;;;;-145.06;100.00;63404.56;10407825;28;20040;-64
2022/05/27 12:51:52;;;;;;;0.10;0.10;;;;;;;-145.06;100.00;63404.56;10408748;28;20036;-64
2022/05/27 13:02:24;;;;;;;0.00;0.00;;;;;;;-145.06;100.00;63404.56;10403367;28;20042;-64
2022/05/27 13:07:36;;;;;;;0.10;0.10;;;;;;;-145.06;100.00;63404.56;10407686;28;20044;-64
2022/05/27 13:12:53;;;;;;;;;;;;;;;-145.06;100.00;63404.56;10408832;28;20060;-63
2022/05/27 13:18:18;;;;;;;0.10;0.10;;;;;;;-145.06;100.00;63404.56;10407116;28;20020;-64
2022/05/27 13:23:27;;;;;;;0.00;0.00;;;;;;;-145.06;100.00;63404.56;10408430;28;20037;-63
2022/05/27 13:28:38;;;;;;;0.10;0.10;;;;;;;-145.06;100.00;63404.56;10413041;28;20029;-63
2022/05/27 13:34:08;;;;;;;0.10;0.10;;;;;;;-145.06;100.00;63404.56;10409481;28;20084;-63
2022/05/27 13:39:12;;;;;;;0.10;0.10;;;;;;;-145.06;100.00;63404.56;10414406;28;20317;-64
2022/05/27 13:44:18;;;;;;;0.10;0.10;;;;;;;-145.06;100.00;63404.56;10415227;28;20044;-64
2022/05/27 13:49:32;;;;;;;0.10;0.10;;;;;;;-145.06;100.00;63404.56;10415060;28;20527;-64
2022/05/27 13:54:38;;;;;;;0.10;0.10;;;;;;;-145.06;100.00;63404.56;10414268;28;20396;-64
2022/05/27 13:59:47;;;;;;;0.10;0.10;;;;;;;-145.06;100.00;63404.56;10411037;28;20038;-64
2022/05/27 14:04:55;;;;;;;0.10;0.10;;;;;;;-145.06;100.00;63404.56;10410462;28;20077;-64
2022/05/27 14:09:58;;;;;;;0.10;0.10;;;;;;;-145.06;100.00;63404.56;10414130;28;20056;-64
2022/05/27 14:15:11;;;;;;;0.10;0.10;;;;;;;-145.06;100.00;63404.56;10410392;28;20117;-64
2022/05/27 14:20:29;;;;;;;0.00;0.00;;;;;;;-145.06;100.00;63404.56;10396057;28;20034;-63
2022/05/27 14:25:40;;;;;;;0.10;0.10;;;;;;;-145.06;100.00;63404.56;10411498;28;20033;-64
2022/05/27 14:30:51;;;;;;;0.10;0.10;;;;;;;-145.06;100.00;63404.56;10392316;28;20563;-65
2022/05/27 14:35:51;;;;;;;0.00;0.00;;;;;;;-145.06;100.00;63404.56;10410066;28;20037;-64
2022/05/27 14:40:52;;;;;;;0.00;0.00;;;;;;;-145.06;100.00;63404.56;10386664;28;20033;-65
2022/05/27 14:45:55;;;;;;;0.10;0.10;;;;;;;-145.06;100.00;63404.56;10370288;28;20038;-64
2022/05/27 14:50:55;;;;;;;0.10;0.10;;;;;;;-145.06;100.00;63404.56;10374685;28;20038;-63
2022/05/27 14:55:59;;;;;;;0.10;0.10;;;;;;;-145.06;100.00;63404.56;10398882;28;20538;-64
2022/05/27 15:01:00;;;;;;;0.10;0.10;;;;;;;-145.06;100.00;63404.56;10397806;28;20030;-67
2022/05/27 15:06:15;;;;;;;0.00;0.00;;;;;;;-145.06;100.00;63404.56;10409583;28;20476;-63
2022/05/27 15:11:18;;;;;;;0.10;0.10;;;;;;;-145.06;100.00;63404.56;10410144;28;20117;-64
2022/05/27 15:16:24;;;;;;;0.10;0.10;;;;;;;-145.06;100.00;63404.56;10393094;28;20038;-64
2022/05/27 15:21:39;;;;;;;0.10;0.10;;;;;;;-145.06;100.00;63404.56;10409803;28;20034;-64
2022/05/27 15:37:32;;;;;;;0.10;0.10;;;;;;;-145.06;100.00;63404.56;10387515;28;20037;-63
2022/05/27 15:42:43;;;;;;;0.10;0.10;;;;;;;-145.06;100.00;63404.56;10404583;28;20029;-63
2022/05/27 15:47:44;;;;;;;0.10;0.10;;;;;;;-145.06;100.00;63404.56;10407707;28;20037;-63
2022/05/27 15:52:45;;;;;;;0.10;0.10;;;;;;;-145.06;100.00;63404.56;10400036;28;20034;-62
2022/05/27 15:57:45;;;;;;;0.10;0.10;;;;;;;-145.06;100.00;63404.56;10405782;28;20204;-63
2022/05/27 16:02:45;;;;;;;0.10;0.10;;;;;;;-145.06;100.00;63404.56;10409124;28;20049;-63
2022/05/27 16:07:46;;;;;;;0.10;0.10;;;;;;;-145.06;100.00;63404.56;10408952;28;20087;-62
2022/05/27 16:12:47;;;;;;;0.10;0.10;;;;;;;-145.06;100.00;63404.56;10401706;28;20299;-63
2022/05/27 16:17:57;;;;;;;0.10;0.10;;;;;;;-145.06;100.00;63404.56;10379303;28;20060;-63
2022/05/27 16:23:13;;;;;;;0.03;0.03;;;;;;;-145.06;100.00;63404.56;10405720;28;20045;-63
2022/05/27 16:28:15;;;;;;;0.10;0.10;;;;;;;-145.06;100.00;63404.56;10408525;28;20033;-62
2022/05/27 16:33:16;;;;;;;0.10;0.10;;;;;;;-145.06;100.00;63404.56;10403973;28;20030;-62
2022/05/27 16:38:17;;;;;;;0.10;0.10;;;;;;;-145.06;100.00;63404.56;10408242;28;20057;-62
2022/05/27 16:43:17;;;;;;;0.00;0.00;;;;;;;-145.06;100.00;63404.56;10409391;28;20477;-63
2022/05/27 16:48:18;;;;;;;0.00;0.00;;;;;;;-145.06;100.00;63404.56;10408435;28;20032;-62
2022/05/27 16:53:18;;;;;;;0.10;0.10;;;;;;;-145.06;100.00;63404.56;10391357;28;20037;-61
2022/05/27 16:58:20;;;;;;;0.10;0.10;;;;;;;-145.06;100.00;63404.56;10408362;28;20037;-62
2022/05/27 17:03:22;;;;;;;0.03;0.03;;;;;;;-145.06;100.00;63404.56;10407036;28;20057;-62
2022/05/27 17:08:27;;;;;;;0.10;0.10;;;;;;;-145.06;100.00;63404.56;10416187;28;20029;-62
2022/05/27 17:13:28;;;;;;;0.10;0.10;;;;;;;-145.06;100.00;63404.56;10416863;28;20357;-62
2022/05/27 17:18:29;;;;;;;0.10;0.10;;;;;;;-145.06;100.00;63404.56;10415727;28;20039;-62
2022/05/27 17:23:29;;;;;;;0.10;0.10;;;;;;;-145.06;100.00;63404.56;10416822;28;20112;-62
2022/05/27 17:28:33;;;;;;;0.00;0.00;;;;;;;-145.06;100.00;63404.56;10416420;28;20025;-62
2022/05/27 17:33:34;;;;;;;0.10;0.10;;;;;;;-145.06;100.00;63404.56;10392328;28;20057;-62
2022/05/27 17:38:37;;;;;;;0.10;0.10;;;;;;;-145.06;100.00;63404.56;10413763;23;20514;-60
2022/05/27 17:43:38;;;;;;;0.10;0.10;;;;;;;-145.06;100.00;63404.56;10405637;28;20042;-60
2022/05/27 17:54:01;;;;;;;0.10;0.10;;;;;;;-145.06;100.00;63404.56;10411789;28;20404;-60
2022/05/27 17:59:26;;;;;;;0.10;0.10;;;;;;;-145.06;100.00;63404.56;10409249;28;20136;-60
2022/05/27 18:04:27;;;;;;;0.08;0.08;;;;;;;-145.06;100.00;63404.56;10404692;28;20508;-63
2022/05/27 18:09:27;;;;;;;0.10;0.10;;;;;;;-145.06;100.00;63404.56;10410303;28;20036;-62
2022/05/27 18:14:46;;;;;;;0.10;0.10;;;;;;;-145.06;100.00;63404.56;10406199;28;20446;-62
2022/05/27 18:19:47;;;;;;;0.10;0.10;;;;;;;-145.06;100.00;63404.56;10399463;28;20041;-63
2022/05/27 18:24:50;;;;;;;0.10;0.10;;;;;;;-145.06;100.00;63404.56;10408904;28;20041;-61
2022/05/27 18:29:51;;;;;;;0.10;0.10;;;;;;;-145.06;100.00;63404.56;10387252;28;20443;-62
2022/05/27 18:34:51;;;;;;;0.00;0.00;;;;;;;-145.06;100.00;63404.56;10367082;28;20179;-61
2022/05/27 18:39:54;;;;;;;0.00;0.00;;;;;;;-145.06;100.00;63404.56;10371236;28;20489;-62
2022/05/27 18:44:57;;;;;;;0.00;0.00;;;;;;;-145.06;100.00;63404.56;10375974;28;20371;-60
2022/05/27 18:49:57;;;;;;;0.00;0.00;;;;;;;-145.06;100.00;63404.56;10367617;28;21076;-61
2022/05/27 18:55:02;;;;;;;0.10;0.10;;;;;;;-145.06;100.00;63404.56;10392992;28;20465;-61
2022/05/27 19:00:11;;;;;;;0.00;0.00;;;;;;;-145.06;100.00;63404.56;10384494;28;20018;-60
2022/05/27 19:05:30;;;;;;;0.03;0.03;;;;;;;-145.06;100.00;63404.56;10385597;28;20030;-60
2022/05/27 19:10:30;;;;;;;0.00;0.00;;;;;;;-145.06;100.00;63404.56;10386880;28;20175;-61
2022/05/27 19:15:30;;;;;;;0.00;0.00;;;;;;;-145.06;100.00;63404.56;10384651;28;20304;-59
2022/05/27 19:25:50;;;;;;;0.00;0.00;;;;;;;-145.06;100.00;63404.56;10387306;28;20045;-60
2022/05/27 19:30:51;;;;;;;0.00;0.00;;;;;;;-145.06;100.00;63404.56;10382740;28;20037;-60
2022/05/27 19:35:51;;;;;;;0.00;0.00;;;;;;;-145.06;100.00;63404.56;10384461;28;20046;-61
2022/05/27 19:40:52;;;;;;;0.00;0.00;;;;;;;-145.06;100.00;63404.56;10371210;28;20531;-58
2022/05/27 19:45:52;;;;;;;0.00;0.00;;;;;;;-145.06;100.00;63404.56;10393654;28;20038;-61
2022/05/27 19:50:52;;;;;;;0.00;0.00;;;;;;;-145.06;100.00;63404.56;10380321;28;20400;-59
2022/05/27 19:55:53;;;;;;;0.00;0.00;;;;;;;-145.06;100.00;63404.56;10369297;28;20464;-61
2022/05/27 20:00:53;;;;;;;0.00;0.00;;;;;;;-145.06;100.00;63404.56;10359782;28;20021;-61
2022/05/27 20:05:53;;;;;;;0.00;0.00;;;;;;;-145.06;100.00;63404.56;10382321;28;20362;-60
2022/05/27 20:11:07;;;;;;;0.00;0.00;;;;;;;-145.06;100.00;63404.56;10390462;28;20029;-61
2022/05/27 20:16:07;;;;;;;0.00;0.00;;;;;;;-145.06;100.00;63404.56;10388328;28;20059;-61
2022/05/27 20:21:08;;;;;;;0.00;0.00;;;;;;;-145.06;100.00;63404.56;10363214;28;20108;-60
2022/05/27 20:26:08;;;;;;;0.00;0.00;;;;;;;-145.06;100.00;63404.56;10387908;28;20326;-59
2022/05/27 20:31:08;;;;;;;0.00;0.00;;;;;;;-145.06;100.00;63404.56;10376699;28;20030;-60
2022/05/27 20:41:29;;;;;;;0.03;0.03;;;;;;;-145.06;100.00;63404.56;10383189;28;20423;-60
2022/05/27 20:46:30;;;;;;;0.00;0.00;;;;;;;-145.06;100.00;63404.56;10392383;28;20042;-61
2022/05/27 20:51:31;;;;;;;0.00;0.00;;;;;;;-145.06;100.00;63404.56;10400675;28;20259;-60
2022/05/27 20:56:35;;;;;;;0.03;0.03;;;;;;;-145.06;100.00;63404.56;10373445;28;20040;-61
2022/05/27 21:01:36;;;;;;;0.00;0.00;;;;;;;-145.06;100.00;63404.56;10384829;28;20384;-61
2022/05/27 21:06:36;;;;;;;0.00;0.00;;;;;;;-145.06;100.00;63404.56;10396880;28;20041;-60
2022/05/27 21:11:40;;;;;;;0.00;0.00;;;;;;;-145.06;100.00;63404.56;10400957;28;20083;-60
2022/05/27 21:16:42;;;;;;;0.00;0.00;;;;;;;-145.06;100.00;63404.56;10369363;28;20319;-60
2022/05/27 21:21:46;;;;;;;0.00;0.00;;;;;;;-145.06;100.00;63404.56;10388503;28;20056;-61
2022/05/27 21:26:47;;;;;;;0.00;0.00;;;;;;;-145.06;100.00;63404.56;10386199;28;20029;-61
2022/05/27 21:31:48;;;;;;;0.00;0.00;;;;;;;-145.06;100.00;63404.56;10394360;28;20038;-60
2022/05/27 21:36:48;;;;;;;0.00;0.00;;;;;;;-145.06;100.00;63404.56;10399430;28;20280;-60
2022/05/27 21:41:49;;;;;;;0.00;0.00;;;;;;;-145.06;100.00;63404.56;10377052;28;20033;-59
2022/05/27 21:46:49;;;;;;;0.00;0.00;;;;;;;-145.06;100.00;63404.56;10381841;28;20053;-61
2022/05/27 21:51:49;;;;;;;0.00;0.00;;;;;;;-145.06;100.00;63404.56;10382094;28;20093;-57
2022/05/27 21:56:50;;;;;;;0.00;0.00;;;;;;;-145.06;100.00;63404.56;10385365;28;20033;-58
2022/05/27 22:01:50;;;;;;;0.00;0.00;;;;;;;-145.06;100.00;63404.56;10371259;28;20034;-61
2022/05/27 22:06:50;;;;;;;0.00;0.00;;;;;;;-145.06;100.00;63404.56;10380312;28;20049;-60
2022/05/27 22:17:10;;;;;;;0.00;0.00;;;;;;;-145.06;100.00;63404.56;10402788;28;20033;-61
2022/05/27 22:22:10;;;;;;;0.00;0.00;;;;;;;-145.06;100.00;63404.56;10398760;28;20033;-61
2022/05/27 22:27:11;;;;;;;0.00;0.00;;;;;;;-145.06;100.00;63404.56;10384037;28;20040;-59
2022/05/27 22:32:11;;;;;;;0.00;0.00;;;;;;;-145.06;100.00;63404.56;10397848;28;20284;-59
2022/05/27 22:37:11;;;;;;;0.10;0.10;;;;;;;-145.06;100.00;63404.56;10385789;28;20057;-60
2022/05/27 22:42:11;;;;;;;0.00;0.00;;;;;;;-145.06;100.00;63404.56;10375381;28;20456;-61
2022/05/27 22:47:12;;;;;;;0.00;0.00;;;;;;;-145.06;100.00;63404.56;10369364;28;20026;-61
2022/05/27 22:52:13;;;;;;;0.00;0.00;;;;;;;-145.06;100.00;63404.56;10383497;28;20030;-59
2022/05/27 22:57:17;;;;;;;0.00;0.00;;;;;;;-145.06;100.00;63404.56;10366079;28;20041;-59
2022/05/27 23:02:17;;;;;;;0.00;0.00;;;;;;;-145.06;100.00;63404.56;10400265;28;20060;-59
2022/05/27 23:07:18;;;;;;;0.00;0.00;;;;;;;-145.06;100.00;63404.56;10386037;28;20068;-60
2022/05/27 23:22:56;;;;;;;0.00;0.00;;;;;;;-145.06;100.00;63404.56;10371313;28;20034;-61
2022/05/27 23:27:56;;;;;;;0.00;0.00;;;;;;;-145.06;100.00;63404.56;10376147;28;20129;-60
2022/05/27 23:32:57;;;;;;;0.00;0.00;;;;;;;-145.06;100.00;63404.56;10366421;28;20030;-59
2022/05/27 23:37:57;;;;;;;0.00;0.00;;;;;;;-145.06;100.00;63404.56;10356729;22;20163;-61
2022/05/27 23:42:58;;;;;;;0.00;0.00;;;;;;;-145.06;100.00;63404.56;10344135;28;20469;-61
2022/05/27 23:47:58;;;;;;;0.00;0.00;;;;;;;-145.06;100.00;63404.56;10327197;28;20115;-61
2022/05/27 23:52:59;;;;;;;0.00;0.00;;;;;;;-145.06;100.00;63404.56;10359773;28;20499;-60
2022/05/27 23:57:59;;;;;;;0.10;0.10;;;;;;;-145.06;100.00;63404.56;10345330;28;20117;-61
